Time;durP1;ratioP1;P1;durP2;ratioP2;P2;SDS_P1;SDS_P2;PMS_P1;PMS_P2;Temp;Humidity;BMP_temperature;BMP_pressure;BME280_temperature;BME280_humidity;BME280_pressure;Samples;Min_cycle;Max_cycle;Signal;HPM_P1;HPM_P2
2023/05/27 00:01:01;;;;;;;9.57;2.90;;;16.40;99.90;;;;;;6270561;22;20360;-74
2023/05/27 00:03:26;;;;;;;11.57;2.73;;;16.40;99.90;;;;;;6270492;22;20348;-74
2023/05/27 00:05:52;;;;;;;10.20;2.80;;;16.40;99.90;;;;;;6270298;22;20380;-74
2023/05/27 00:08:18;;;;;;;10.23;3.33;;;16.50;99.90;;;;;;6269908;22;20355;-74
2023/05/27 00:10:43;;;;;;;12.25;3.25;;;16.50;99.90;;;;;;6271652;22;20747;-74
2023/05/27 00:13:09;;;;;;;10.43;2.83;;;16.40;99.90;;;;;;6271148;22;20410;-74
2023/05/27 00:15:34;;;;;;;12.50;2.72;;;16.30;99.90;;;;;;6271164;22;20364;-74
2023/05/27 00:18:01;;;;;;;8.63;2.60;;;16.30;99.90;;;;;;6270659;22;20368;-74
2023/05/27 00:20:29;;;;;;;8.70;2.90;;;16.30;99.90;;;;;;6270280;22;20687;-74
2023/05/27 00:22:56;;;;;;;9.82;3.10;;;16.20;99.90;;;;;;6270164;22;20356;-74
2023/05/27 00:25:22;;;;;;;12.30;2.90;;;16.20;99.90;;;;;;6270456;22;20427;-74
2023/05/27 00:27:48;;;;;;;10.00;2.97;;;16.20;99.90;;;;;;6270932;22;20437;-74
2023/05/27 00:30:14;;;;;;;9.45;3.30;;;16.20;99.90;;;;;;6270429;22;20373;-74
2023/05/27 00:32:39;;;;;;;12.77;2.83;;;16.30;99.90;;;;;;6270489;22;20403;-74
2023/05/27 00:35:06;;;;;;;11.03;2.83;;;16.30;99.90;;;;;;6269905;22;20387;-74
2023/05/27 00:37:31;;;;;;;9.13;3.23;;;16.40;99.90;;;;;;6270351;22;20341;-74
2023/05/27 00:39:57;;;;;;;12.10;3.20;;;16.30;99.90;;;;;;6270164;22;20352;-74
2023/05/27 00:42:23;;;;;;;10.65;2.70;;;16.30;99.90;;;;;;6270133;22;20819;-74
2023/05/27 00:44:48;;;;;;;11.70;3.13;;;16.40;99.90;;;;;;6270898;22;20353;-74
2023/05/27 00:47:15;;;;;;;7.68;2.70;;;16.40;99.90;;;;;;6270153;22;20347;-74
2023/05/27 00:49:42;;;;;;;9.03;2.97;;;16.30;99.90;;;;;;6269949;22;20419;-74
2023/05/27 00:52:08;;;;;;;11.63;2.97;;;16.30;99.90;;;;;;6270129;22;20348;-74
2023/05/27 00:54:34;;;;;;;10.50;2.90;;;16.20;99.90;;;;;;6270081;22;20388;-74
2023/05/27 00:57:02;;;;;;;8.18;2.90;;;16.20;99.90;;;;;;6270192;22;20818;-74
2023/05/27 00:59:28;;;;;;;10.07;2.93;;;16.10;99.90;;;;;;6270406;22;20357;-74
2023/05/27 01:01:53;;;;;;;9.50;3.30;;;16.00;99.90;;;;;;6270207;22;20352;-74
2023/05/27 01:04:20;;;;;;;13.43;3.30;;;16.00;99.90;;;;;;6270061;22;20344;-74
2023/05/27 01:06:59;;;;;;;11.15;3.20;;;16.00;99.90;;;;;;6270609;22;20719;-74
2023/05/27 01:09:53;;;;;;;10.25;2.75;;;15.90;99.90;;;;;;6270339;22;20849;-74
2023/05/27 01:12:27;;;;;;;10.07;2.95;;;15.80;99.90;;;;;;6270403;22;20368;-74
2023/05/27 01:14:57;;;;;;;7.95;2.42;;;15.70;99.90;;;;;;6269632;22;20376;-74
2023/05/27 01:17:26;;;;;;;11.32;3.40;;;15.70;99.90;;;;;;6269909;22;20810;-74
2023/05/27 01:19:52;;;;;;;8.93;3.00;;;15.60;99.90;;;;;;6269857;22;20356;-74
2023/05/27 01:22:19;;;;;;;9.40;2.70;;;15.60;99.90;;;;;;6270474;22;20353;-74
2023/05/27 01:24:46;;;;;;;11.25;2.85;;;15.50;99.90;;;;;;6270615;22;20363;-74
2023/05/27 01:27:12;;;;;;;13.15;3.42;;;15.50;99.90;;;;;;6269897;22;20349;-74
2023/05/27 01:29:39;;;;;;;8.77;2.58;;;15.50;99.90;;;;;;6270263;22;20348;-74
2023/05/27 01:32:21;;;;;;;13.43;3.13;;;15.40;99.90;;;;;;6269733;22;20368;-74
2023/05/27 01:34:56;;;;;;;12.38;3.10;;;15.30;99.90;;;;;;6270014;22;20431;-74
2023/05/27 01:37:25;;;;;;;9.20;2.42;;;15.30;99.90;;;;;;6270190;22;20439;-74
2023/05/27 01:39:51;;;;;;;9.43;2.77;;;15.30;99.90;;;;;;6270102;22;20396;-74
2023/05/27 01:42:18;;;;;;;15.15;3.40;;;15.20;99.90;;;;;;6270315;22;20455;-74
2023/05/27 01:44:45;;;;;;;11.25;2.80;;;15.20;99.90;;;;;;6269856;22;20364;-74
2023/05/27 01:47:11;;;;;;;9.77;3.10;;;15.10;99.90;;;;;;6270044;22;20372;-74
2023/05/27 01:49:37;;;;;;;10.38;2.97;;;15.10;99.90;;;;;;6269507;22;20413;-74
2023/05/27 01:52:02;;;;;;;13.00;3.50;;;15.10;99.90;;;;;;6269311;22;20352;-74
2023/05/27 01:54:28;;;;;;;12.20;3.30;;;15.10;99.90;;;;;;6269673;22;20684;-74
2023/05/27 01:56:53;;;;;;;10.35;2.92;;;15.00;99.90;;;;;;6269840;22;20428;-74
2023/05/27 01:59:19;;;;;;;11.90;2.73;;;15.00;99.90;;;;;;6270328;22;20357;-74
2023/05/27 02:01:44;;;;;;;10.87;3.37;;;15.00;99.90;;;;;;6270502;22;20422;-74
2023/05/27 02:04:10;;;;;;;8.50;3.20;;;14.90;99.90;;;;;;6269655;22;20352;-74
2023/05/27 02:06:36;;;;;;;10.18;3.03;;;14.90;99.90;;;;;;6269492;22;20360;-74
2023/05/27 02:09:02;;;;;;;10.13;2.93;;;14.90;99.90;;;;;;6270253;22;20340;-74
2023/05/27 02:11:27;;;;;;;9.18;3.20;;;14.90;99.90;;;;;;6269554;22;20353;-74
2023/05/27 02:13:53;;;;;;;12.20;3.20;;;14.80;99.90;;;;;;6269463;22;20683;-74
2023/05/27 02:16:20;;;;;;;11.57;3.40;;;14.60;99.90;;;;;;6270341;22;20724;-74
2023/05/27 02:18:48;;;;;;;14.20;3.10;;;14.40;99.90;;;;;;6269822;22;20844;-74
2023/05/27 02:21:14;;;;;;;10.85;3.00;;;14.30;99.90;;;;;;6269549;22;20443;-74
2023/05/27 02:23:40;;;;;;;10.05;3.35;;;14.10;99.90;;;;;;6270765;22;20372;-74
2023/05/27 02:26:05;;;;;;;10.40;3.37;;;13.90;99.90;;;;;;6271939;22;20356;-74
2023/05/27 02:28:31;;;;;;;10.00;3.10;;;13.80;99.90;;;;;;6271523;22;20356;-74
2023/05/27 02:30:58;;;;;;;10.80;3.20;;;13.80;99.90;;;;;;6271638;22;20396;-74
2023/05/27 02:33:23;;;;;;;8.40;3.05;;;13.70;99.90;;;;;;6271247;22;20748;-74
2023/05/27 02:35:49;;;;;;;8.90;3.50;;;13.70;99.90;;;;;;6272342;22;20359;-74
2023/05/27 02:38:15;;;;;;;9.23;3.00;;;13.60;99.90;;;;;;6272074;22;20413;-74
2023/05/27 02:40:40;;;;;;;9.47;3.10;;;13.60;99.90;;;;;;6271650;22;20791;-74
2023/05/27 02:43:06;;;;;;;12.68;3.50;;;13.60;99.90;;;;;;6271739;22;20348;-74
2023/05/27 02:45:31;;;;;;;12.30;3.50;;;13.60;99.90;;;;;;6271611;22;20353;-74
2023/05/27 02:48:00;;;;;;;12.03;3.03;;;13.60;99.90;;;;;;6271415;22;20340;-74
2023/05/27 02:50:26;;;;;;;11.30;3.15;;;13.50;99.90;;;;;;6271426;22;20372;-74
2023/05/27 02:52:52;;;;;;;10.48;3.40;;;13.40;99.90;;;;;;6271597;22;20344;-74
2023/05/27 02:55:17;;;;;;;10.68;2.80;;;13.40;99.90;;;;;;6271864;22;20384;-74
2023/05/27 02:57:43;;;;;;;10.80;3.30;;;13.30;1.00;;;;;;6271471;22;20511;-74
2023/05/27 03:00:09;;;;;;;11.10;3.70;;;13.20;1.00;;;;;;6271755;22;20368;-74
2023/05/27 03:02:34;;;;;;;14.15;3.95;;;13.10;1.00;;;;;;6271745;22;20344;-74
2023/05/27 03:05:01;;;;;;;11.25;3.40;;;13.00;1.00;;;;;;6271502;22;20354;-74
2023/05/27 03:07:30;;;;;;;8.52;3.45;;;13.00;1.00;;;;;;6271391;22;20807;-74
2023/05/27 03:09:56;;;;;;;11.55;3.75;;;13.00;1.00;;;;;;6271020;22;20359;-74
2023/05/27 03:12:23;;;;;;;11.40;3.70;;;12.90;1.00;;;;;;6271425;22;20359;-74
2023/05/27 03:14:52;;;;;;;12.93;3.70;;;12.90;1.00;;;;;;6271931;22;20404;-74
2023/05/27 03:17:19;;;;;;;11.83;3.30;;;13.00;1.00;;;;;;6272070;22;20359;-74
2023/05/27 03:19:44;;;;;;;10.27;3.53;;;13.10;1.00;;;;;;6271929;22;20386;-74
2023/05/27 03:22:10;;;;;;;11.07;3.30;;;13.20;1.00;;;;;;6271281;22;20427;-74
2023/05/27 03:24:36;;;;;;;14.53;3.80;;;13.20;1.00;;;;;;6271123;22;20355;-74
2023/05/27 03:27:03;;;;;;;12.25;4.10;;;13.20;1.00;;;;;;6271169;22;20375;-74
2023/05/27 03:29:28;;;;;;;12.32;3.72;;;13.10;1.00;;;;;;6271004;22;20360;-74
2023/05/27 03:31:54;;;;;;;11.07;3.30;;;12.90;17.50;;;;;;6270935;22;20383;-74
2023/05/27 03:34:20;;;;;;;9.50;3.30;;;12.80;94.10;;;;;;6270769;22;20408;-74
2023/05/27 03:36:46;;;;;;;20.60;14.43;;;12.80;99.90;;;;;;6271639;22;20810;-74
2023/05/27 03:39:15;;;;;;;11.40;4.00;;;12.70;99.90;;;;;;6270997;22;20356;-74
2023/05/27 03:41:41;;;;;;;7.95;3.28;;;12.70;99.90;;;;;;6270654;22;20364;-74
2023/05/27 03:44:06;;;;;;;12.00;3.10;;;12.60;99.90;;;;;;6270581;22;20360;-74
2023/05/27 03:46:33;;;;;;;10.07;3.40;;;12.60;99.90;;;;;;6270714;22;20428;-74
2023/05/27 03:48:58;;;;;;;13.75;3.50;;;12.50;99.90;;;;;;6270784;22;20384;-74
2023/05/27 03:51:24;;;;;;;12.77;3.50;;;12.50;1.00;;;;;;6270600;22;20657;-74
2023/05/27 03:53:50;;;;;;;12.35;3.35;;;12.40;1.00;;;;;;6270424;22;20568;-74
2023/05/27 03:56:15;;;;;;;11.10;3.80;;;12.40;1.00;;;;;;6271060;22;20356;-74
2023/05/27 03:58:41;;;;;;;12.00;3.67;;;12.40;1.00;;;;;;6270580;22;20435;-74
2023/05/27 04:01:06;;;;;;;9.67;3.30;;;12.50;1.00;;;;;;6270644;22;20673;-74
2023/05/27 04:03:32;;;;;;;11.20;3.87;;;12.60;1.00;;;;;;6270525;22;20406;-73
2023/05/27 04:05:58;;;;;;;12.45;3.67;;;12.50;1.00;;;;;;6270438;22;20431;-73
2023/05/27 04:08:26;;;;;;;11.10;4.50;;;12.60;1.00;;;;;;6269761;22;20812;-73
2023/05/27 04:10:55;;;;;;;11.02;3.00;;;12.60;1.00;;;;;;6270392;22;20423;-73
2023/05/27 04:13:20;;;;;;;12.43;3.83;;;12.60;1.00;;;;;;6270546;22;20376;-74
2023/05/27 04:15:46;;;;;;;14.80;3.67;;;12.70;1.00;;;;;;6271077;22;20375;-74
2023/05/27 04:18:12;;;;;;;13.43;3.97;;;12.70;1.00;;;;;;6270299;22;20360;-74
2023/05/27 04:20:40;;;;;;;11.20;3.50;;;12.80;99.90;;;;;;6270549;22;20397;-74
2023/05/27 04:23:06;;;;;;;14.13;4.63;;;12.90;99.90;;;;;;6270159;22;20367;-74
2023/05/27 04:25:32;;;;;;;12.43;3.90;;;13.10;1.00;;;;;;6270347;22;20368;-74
2023/05/27 04:27:58;;;;;;;10.40;3.30;;;13.20;1.00;;;;;;6270372;22;20356;-74
2023/05/27 04:30:24;;;;;;;18.45;4.13;;;13.20;1.00;;;;;;6270170;22;20386;-74
2023/05/27 04:32:49;;;;;;;14.48;4.15;;;13.40;1.00;;;;;;6271301;22;20353;-74
2023/05/27 04:35:15;;;;;;;15.30;4.32;;;13.40;1.00;;;;;;6270831;22;20447;-74
2023/05/27 04:37:44;;;;;;;14.35;4.28;;;13.50;1.00;;;;;;6269638;22;20387;-74
2023/05/27 04:40:10;;;;;;;15.82;3.80;;;13.60;1.00;;;;;;6270068;22;20360;-74
2023/05/27 04:42:36;;;;;;;12.80;4.32;;;13.60;1.00;;;;;;6269929;22;20352;-74
2023/05/27 04:45:03;;;;;;;15.52;4.50;;;13.70;1.00;;;;;;6270210;22;20361;-74
2023/05/27 04:47:30;;;;;;;11.05;4.00;;;13.70;1.00;;;;;;6270201;22;20352;-74
2023/05/27 04:49:56;;;;;;;15.43;3.33;;;13.90;1.00;;;;;;6270335;22;20344;-74
2023/05/27 04:52:23;;;;;;;11.40;3.70;;;14.00;1.00;;;;;;6269923;22;20389;-75
2023/05/27 04:54:48;;;;;;;12.98;3.60;;;14.20;1.00;;;;;;6270471;22;20391;-74
2023/05/27 04:57:18;;;;;;;12.73;3.17;;;14.70;1.00;;;;;;6270106;22;20425;-74
2023/05/27 05:00:17;;;;;;;12.00;3.35;;;15.10;1.00;;;;;;6270091;22;20442;-74
2023/05/27 05:02:47;;;;;;;11.83;3.93;;;15.60;99.90;;;;;;6269995;22;20667;-74
2023/05/27 05:05:13;;;;;;;13.65;3.97;;;16.00;99.90;;;;;;6269918;22;20353;-74
2023/05/27 05:07:41;;;;;;;12.90;3.90;;;16.10;99.90;;;;;;6269734;22;20360;-74
2023/05/27 05:10:11;;;;;;;11.93;3.30;;;16.30;99.90;;;;;;6270055;22;20678;-74
2023/05/27 05:12:37;;;;;;;10.13;3.05;;;16.70;99.90;;;;;;6269422;22;20679;-74
2023/05/27 05:15:04;;;;;;;13.80;3.60;;;16.90;99.90;;;;;;6269544;22;20707;-74
2023/05/27 05:17:29;;;;;;;13.17;3.40;;;17.10;99.90;;;;;;6269820;22;20388;-74
2023/05/27 05:19:55;;;;;;;10.10;3.30;;;17.40;99.90;;;;;;6269973;22;20640;-75
2023/05/27 05:22:23;;;;;;;12.68;3.53;;;17.80;99.90;;;;;;6269525;22;20410;-74
2023/05/27 05:24:49;;;;;;;10.10;3.35;;;18.10;99.90;;;;;;6270750;22;20357;-78
2023/05/27 05:27:15;;;;;;;13.27;3.20;;;18.40;99.90;;;;;;6270261;22;20352;-75
2023/05/27 05:29:41;;;;;;;9.97;3.70;;;18.60;99.90;;;;;;6269282;22;20457;-75
2023/05/27 05:32:08;;;;;;;9.93;3.50;;;18.80;99.90;;;;;;6269311;22;20352;-75
2023/05/27 05:34:34;;;;;;;13.32;3.50;;;19.10;99.90;;;;;;6269553;22;20395;-75
2023/05/27 05:36:59;;;;;;;13.90;3.42;;;19.00;99.90;;;;;;6269513;22;20340;-75
2023/05/27 05:39:25;;;;;;;9.20;2.78;;;18.90;99.90;;;;;;6269367;22;20707;-75
2023/05/27 05:41:50;;;;;;;12.35;3.50;;;19.20;99.90;;;;;;6269517;22;20343;-75
2023/05/27 05:44:17;;;;;;;10.85;3.33;;;19.20;99.90;;;;;;6270324;22;20682;-74
2023/05/27 05:46:42;;;;;;;9.35;3.25;;;19.70;99.90;;;;;;6269488;22;20695;-75
2023/05/27 05:49:08;;;;;;;10.43;3.05;;;20.00;99.90;;;;;;6269547;22;20413;-75
2023/05/27 05:51:33;;;;;;;11.10;3.58;;;19.80;99.90;;;;;;6269716;22;20405;-74
2023/05/27 05:53:59;;;;;;;13.65;3.20;;;20.00;99.90;;;;;;6269780;22;20388;-75
2023/05/27 05:56:28;;;;;;;9.38;3.28;;;20.10;99.90;;;;;;6269602;22;20815;-75
2023/05/27 05:58:54;;;;;;;11.40;3.42;;;20.40;99.90;;;;;;6271081;22;20383;-74
2023/05/27 06:01:19;;;;;;;13.17;4.37;;;20.30;99.90;;;;;;6272270;22;20410;-75
2023/05/27 06:03:45;;;;;;;10.77;3.20;;;20.60;99.90;;;;;;6270982;22;20371;-74
2023/05/27 06:06:11;;;;;;;10.15;3.50;;;21.70;99.90;;;;;;6270148;22;20409;-75
2023/05/27 06:08:36;;;;;;;10.35;4.55;;;21.90;99.90;;;;;;6271462;22;20357;-76
2023/05/27 06:11:02;;;;;;;9.95;3.55;;;21.60;99.90;;;;;;6269682;22;20356;-75
2023/05/27 06:13:28;;;;;;;11.60;3.53;;;21.90;99.90;;;;;;6271419;22;20872;-75
2023/05/27 06:15:55;;;;;;;13.48;3.83;;;22.90;99.90;;;;;;6271765;22;20810;-75
2023/05/27 06:18:21;;;;;;;12.37;4.33;;;23.50;99.90;;;;;;6271580;22;20344;-75
2023/05/27 06:20:47;;;;;;;15.80;4.20;;;23.50;99.90;;;;;;6272132;22;20386;-78
2023/05/27 06:23:12;;;;;;;9.93;4.18;;;23.30;99.90;;;;;;6271065;22;20674;-75
2023/05/27 06:25:38;;;;;;;11.30;3.70;;;23.60;99.90;;;;;;6271249;22;20735;-76
2023/05/27 06:28:04;;;;;;;14.18;4.40;;;23.50;99.90;;;;;;6271666;22;20348;-76
2023/05/27 06:30:29;;;;;;;10.93;3.97;;;23.80;99.90;;;;;;6271077;22;20416;-76
2023/05/27 06:32:55;;;;;;;12.23;4.25;;;23.90;99.90;;;;;;6271204;22;20364;-76
2023/05/27 06:35:20;;;;;;;9.70;3.40;;;23.90;99.90;;;;;;6270933;22;20457;-76
2023/05/27 06:37:46;;;;;;;9.35;3.60;;;23.90;99.90;;;;;;6271570;22;20439;-76
2023/05/27 06:40:12;;;;;;;9.38;3.72;;;23.20;99.90;;;;;;6271518;22;20395;-75
2023/05/27 06:42:39;;;;;;;9.75;3.47;;;23.20;99.90;;;;;;6272023;22;20759;-75
2023/05/27 06:45:05;;;;;;;10.30;4.00;;;23.90;99.90;;;;;;6272259;22;20395;-75
2023/05/27 06:47:31;;;;;;;11.20;4.03;;;23.80;99.90;;;;;;6271915;22;20348;-75
2023/05/27 06:49:56;;;;;;;10.05;3.90;;;24.00;99.90;;;;;;6271767;22;20356;-75
2023/05/27 06:52:22;;;;;;;11.38;3.60;;;24.00;99.90;;;;;;6270853;22;20356;-75
2023/05/27 06:54:47;;;;;;;11.10;4.23;;;24.10;99.90;;;;;;6271956;22;20384;-73
2023/05/27 06:57:13;;;;;;;11.88;3.95;;;24.60;99.90;;;;;;6271457;22;20418;-75
2023/05/27 06:59:39;;;;;;;11.88;4.50;;;24.60;99.90;;;;;;6270725;22;20364;-75
2023/05/27 07:02:06;;;;;;;12.23;4.85;;;24.40;99.90;;;;;;6271172;22;20798;-75
2023/05/27 07:04:32;;;;;;;12.50;4.47;;;24.30;99.90;;;;;;6269816;22;20394;-75
2023/05/27 07:06:57;;;;;;;11.32;4.68;;;24.10;99.90;;;;;;6270758;22;20381;-75
2023/05/27 07:09:23;;;;;;;10.33;4.30;;;24.90;99.90;;;;;;6269974;22;20364;-76
2023/05/27 07:11:48;;;;;;;9.30;4.10;;;25.40;99.90;;;;;;6272301;22;20349;-74
2023/05/27 07:14:14;;;;;;;10.20;4.20;;;25.70;99.90;;;;;;6271035;22;20376;-73
2023/05/27 07:16:40;;;;;;;11.80;4.43;;;25.70;99.90;;;;;;6270747;22;20360;-75
2023/05/27 07:19:06;;;;;;;10.20;4.80;;;25.50;99.90;;;;;;6272377;22;20435;-74
2023/05/27 07:21:32;;;;;;;14.52;4.80;;;25.90;99.90;;;;;;6271377;22;20363;-75
2023/05/27 07:23:58;;;;;;;12.85;5.20;;;26.00;99.90;;;;;;6271037;22;20352;-75
2023/05/27 07:26:25;;;;;;;9.88;5.07;;;25.70;99.90;;;;;;6271241;22;20363;-73
2023/05/27 07:28:51;;;;;;;10.30;4.95;;;26.10;99.90;;;;;;6270145;22;20653;-73
2023/05/27 07:31:17;;;;;;;9.73;4.75;;;26.50;99.90;;;;;;6271122;22;20383;-73
2023/05/27 07:33:43;;;;;;;10.10;4.67;;;26.30;99.90;;;;;;6270726;22;20395;-73
2023/05/27 07:36:08;;;;;;;11.07;5.00;;;26.00;99.90;;;;;;6271037;22;20380;-73
2023/05/27 07:38:34;;;;;;;13.35;5.10;;;26.10;99.90;;;;;;6294410;22;20378;-72
2023/05/27 07:40:59;;;;;;;10.97;5.67;;;26.80;99.90;;;;;;6271092;22;20375;-73
2023/05/27 07:43:25;;;;;;;11.83;5.40;;;27.20;99.90;;;;;;6270746;22;20743;-72
2023/05/27 07:45:50;;;;;;;10.80;5.93;;;26.40;99.90;;;;;;6270493;22;20371;-72
2023/05/27 07:48:16;;;;;;;13.10;6.40;;;27.00;99.90;;;;;;6271437;22;20348;-72
2023/05/27 07:50:41;;;;;;;9.70;3.27;;;27.00;99.90;;;;;;6270386;22;20410;-74
2023/05/27 07:53:08;;;;;;;10.40;3.30;;;27.80;99.90;;;;;;6269780;22;20410;-72
2023/05/27 07:55:33;;;;;;;11.52;3.10;;;28.10;99.90;;;;;;6270897;22;20678;-73
2023/05/27 07:57:59;;;;;;;10.90;2.85;;;27.40;99.90;;;;;;6270842;22;20434;-73
2023/05/27 08:00:24;;;;;;;13.15;3.50;;;27.50;99.90;;;;;;6270465;22;20344;-73
2023/05/27 08:02:50;;;;;;;9.73;3.10;;;28.00;99.90;;;;;;6270242;22;20355;-73
2023/05/27 08:05:16;;;;;;;8.50;3.00;;;27.90;99.90;;;;;;6270003;22;20676;-73
2023/05/27 08:07:41;;;;;;;9.00;2.60;;;28.40;99.90;;;;;;6268871;22;20716;-73
2023/05/27 08:10:08;;;;;;;8.95;2.60;;;28.30;99.90;;;;;;6269594;22;20400;-73
2023/05/27 08:12:33;;;;;;;11.60;3.03;;;27.40;99.90;;;;;;6269329;22;20356;-73
2023/05/27 08:14:59;;;;;;;12.30;3.40;;;27.20;99.90;;;;;;6269250;22;20372;-73
2023/05/27 08:17:24;;;;;;;9.87;5.83;;;28.10;99.90;;;;;;6269627;22;20427;-73
2023/05/27 08:19:50;;;;;;;11.43;5.13;;;28.40;99.90;;;;;;6269432;22;20402;-73
2023/05/27 08:22:15;;;;;;;12.73;6.80;;;27.90;99.90;;;;;;6270828;22;20353;-73
2023/05/27 08:24:41;;;;;;;10.48;5.00;;;28.80;99.90;;;;;;6270793;22;20353;-74
2023/05/27 08:27:18;;;;;;;11.20;7.07;;;28.50;99.90;;;;;;6270629;22;20405;-73
2023/05/27 08:29:44;;;;;;;12.32;6.80;;;28.60;99.90;;;;;;6269790;22;20352;-73
2023/05/27 08:32:10;;;;;;;12.50;6.07;;;28.20;99.90;;;;;;6269781;22;20374;-73
2023/05/27 08:34:36;;;;;;;12.40;5.97;;;28.50;99.90;;;;;;6269676;22;20387;-73
2023/05/27 08:37:03;;;;;;;12.47;7.20;;;28.50;99.90;;;;;;6270061;22;20367;-73
2023/05/27 08:39:28;;;;;;;13.40;5.68;;;29.20;99.90;;;;;;6270464;22;20352;-73
2023/05/27 08:41:54;;;;;;;12.83;3.40;;;28.60;99.90;;;;;;6270092;22;20752;-73
2023/05/27 08:44:23;;;;;;;12.73;6.17;;;29.30;99.90;;;;;;6270177;22;20341;-73
2023/05/27 08:46:50;;;;;;;11.52;6.10;;;30.40;99.90;;;;;;6271003;22;20655;-75
2023/05/27 08:49:16;;;;;;;11.25;5.85;;;31.40;99.90;;;;;;6270795;22;20364;-75
2023/05/27 08:51:43;;;;;;;11.20;5.90;;;31.10;99.90;;;;;;6270068;22;20367;-76
2023/05/27 08:54:09;;;;;;;12.70;6.45;;;31.00;99.90;;;;;;6270158;22;20463;-76
2023/05/27 08:56:36;;;;;;;12.45;6.40;;;30.60;99.90;;;;;;6269903;22;20912;-76
2023/05/27 08:59:01;;;;;;;9.27;6.03;;;30.80;99.90;;;;;;6270049;22;20427;-76
2023/05/27 09:01:27;;;;;;;9.53;5.60;;;31.40;99.90;;;;;;6269154;22;20375;-76
2023/05/27 09:03:54;;;;;;;11.82;6.70;;;31.80;99.90;;;;;;6269625;22;20356;-76
2023/05/27 09:06:20;;;;;;;12.18;3.30;;;31.20;99.90;;;;;;6268865;22;20428;-76
2023/05/27 09:08:46;;;;;;;9.10;3.13;;;31.30;99.90;;;;;;6268731;22;20411;-76
2023/05/27 09:11:30;;;;;;;11.07;3.60;;;31.50;99.90;;;;;;6269431;22;20811;-75
2023/05/27 09:13:56;;;;;;;10.20;3.78;;;32.10;99.90;;;;;;6269791;22;20376;-75
2023/05/27 09:16:22;;;;;;;11.88;5.00;;;32.20;99.90;;;;;;6269690;22;20356;-75
2023/05/27 09:18:48;;;;;;;9.85;5.28;;;31.80;99.90;;;;;;6270443;22;20360;-76
2023/05/27 09:21:14;;;;;;;9.90;5.00;;;31.60;99.90;;;;;;6270082;22;20356;-76
2023/05/27 09:23:40;;;;;;;10.83;3.70;;;31.40;99.90;;;;;;6269490;22;20470;-75
2023/05/27 09:26:09;;;;;;;11.67;3.93;;;31.00;99.90;;;;;;6269856;22;20385;-75
2023/05/27 09:28:36;;;;;;;9.43;3.10;;;32.50;99.90;;;;;;6269281;22;20449;-73
2023/05/27 09:31:07;;;;;;;9.50;3.40;;;33.20;99.90;;;;;;6269597;22;20798;-73
2023/05/27 09:33:35;;;;;;;10.07;3.90;;;33.20;99.90;;;;;;6269080;22;20421;-73
2023/05/27 09:36:02;;;;;;;11.73;4.10;;;32.90;99.90;;;;;;6269775;22;20360;-74
2023/05/27 09:38:29;;;;;;;13.25;6.25;;;32.50;99.90;;;;;;6269377;22;20854;-74
2023/05/27 09:40:58;;;;;;;10.25;4.88;;;32.40;99.90;;;;;;6270241;22;20364;-72
2023/05/27 09:43:25;;;;;;;9.52;3.50;;;31.70;99.90;;;;;;6270098;22;20421;-73
2023/05/27 09:45:58;;;;;;;10.55;3.53;;;30.80;99.90;;;;;;6269789;22;20376;-73
2023/05/27 09:48:25;;;;;;;9.90;3.50;;;30.90;99.90;;;;;;6266412;22;20875;-76
2023/05/27 09:50:52;;;;;;;9.60;3.50;;;31.30;99.90;;;;;;6272088;22;20356;-80
2023/05/27 09:53:21;;;;;;;12.45;4.30;;;31.50;99.90;;;;;;6273007;22;20348;-77
2023/05/27 09:55:48;;;;;;;10.20;4.30;;;31.90;99.90;;;;;;6274135;22;20344;-79
2023/05/27 09:58:15;;;;;;;9.35;2.95;;;32.50;99.90;;;;;;6278031;22;20375;-77
2023/05/27 10:00:41;;;;;;;10.50;3.45;;;32.20;99.90;;;;;;6297171;22;20340;-78
2023/05/27 10:03:08;;;;;;;9.40;3.65;;;32.50;99.90;;;;;;6294259;22;20724;-77
2023/05/27 10:05:34;;;;;;;10.88;4.10;;;31.50;99.90;;;;;;6270652;22;20379;-77
2023/05/27 10:08:01;;;;;;;9.73;3.58;;;31.80;99.90;;;;;;6269593;22;20360;-77
2023/05/27 10:10:28;;;;;;;11.25;3.67;;;31.70;99.90;;;;;;6273933;22;20387;-78
2023/05/27 10:12:55;;;;;;;15.18;3.42;;;31.30;99.90;;;;;;6271198;22;20703;-77
2023/05/27 10:15:23;;;;;;;9.80;3.63;;;31.10;99.90;;;;;;6270539;22;20441;-78
2023/05/27 10:18:13;;;;;;;9.93;3.60;;;30.90;99.90;;;;;;6272330;22;20431;-78
2023/05/27 10:20:41;;;;;;;10.57;3.83;;;31.10;99.90;;;;;;6270674;22;20368;-78
2023/05/27 10:23:15;;;;;;;10.52;3.90;;;31.50;99.90;;;;;;6269233;22;20879;-78
2023/05/27 10:25:49;;;;;;;10.00;4.07;;;31.70;99.90;;;;;;6271487;22;20386;-78
2023/05/27 10:28:28;;;;;;;10.18;3.90;;;30.50;99.90;;;;;;6271470;22;20475;-77
2023/05/27 10:31:14;;;;;;;10.30;3.63;;;29.50;99.90;;;;;;6293740;22;20846;-78
2023/05/27 10:33:45;;;;;;;12.00;5.00;;;29.40;99.90;;;;;;6271003;22;21076;-78
2023/05/27 10:36:15;;;;;;;11.75;6.90;;;29.40;99.90;;;;;;6269498;22;20352;-78
2023/05/27 10:38:43;;;;;;;12.25;6.70;;;29.20;99.90;;;;;;6268903;22;20348;-78
2023/05/27 10:41:09;;;;;;;13.00;6.22;;;28.70;99.90;;;;;;6269806;22;20359;-77
2023/05/27 10:43:35;;;;;;;11.82;6.10;;;28.20;99.90;;;;;;6269599;22;20372;-77
2023/05/27 10:46:13;;;;;;;13.00;6.53;;;28.20;99.90;;;;;;6271236;22;20360;-77
2023/05/27 10:48:42;;;;;;;14.30;6.57;;;28.00;99.90;;;;;;6271325;22;20690;-78
2023/05/27 10:51:08;;;;;;;13.57;7.03;;;28.20;99.90;;;;;;6271822;22;20731;-78
2023/05/27 10:53:37;;;;;;;12.35;6.28;;;27.90;99.90;;;;;;6270969;22;20691;-78
2023/05/27 10:56:03;;;;;;;11.27;6.40;;;27.90;99.90;;;;;;6271350;22;20412;-78
2023/05/27 10:58:28;;;;;;;9.80;5.80;;;28.00;99.90;;;;;;6271524;22;20683;-78
2023/05/27 11:00:56;;;;;;;12.73;6.20;;;27.80;99.90;;;;;;6271039;22;20352;-78
2023/05/27 11:03:25;;;;;;;12.27;6.43;;;27.60;99.90;;;;;;6271933;22;20345;-77
2023/05/27 11:06:07;;;;;;;12.18;5.80;;;27.70;99.90;;;;;;6271440;22;20402;-77
2023/05/27 11:08:34;;;;;;;14.13;6.20;;;27.90;99.90;;;;;;6271242;22;20364;-77
2023/05/27 11:11:01;;;;;;;10.25;6.00;;;27.50;99.90;;;;;;6271393;22;20352;-77
2023/05/27 11:13:35;;;;;;;11.73;6.40;;;27.40;99.90;;;;;;6270936;22;20410;-77
2023/05/27 11:16:02;;;;;;;12.98;6.32;;;27.10;99.90;;;;;;6271655;22;20439;-78
2023/05/27 11:18:45;;;;;;;12.95;6.45;;;27.00;99.90;;;;;;6271681;22;20418;-78
2023/05/27 11:21:12;;;;;;;11.80;6.50;;;27.10;99.90;;;;;;6271002;22;20372;-78
2023/05/27 11:23:40;;;;;;;10.38;6.15;;;27.30;99.90;;;;;;6271094;22;20348;-78
2023/05/27 11:26:21;;;;;;;13.50;6.32;;;27.40;99.90;;;;;;6271298;22;20352;-78
2023/05/27 11:28:55;;;;;;;12.90;6.50;;;27.70;99.90;;;;;;6271702;22;20447;-78
2023/05/27 11:31:28;;;;;;;11.50;6.10;;;27.70;99.90;;;;;;6270657;22;20486;-78
2023/05/27 11:33:54;;;;;;;11.75;6.90;;;28.00;99.90;;;;;;6270894;22;20403;-78
2023/05/27 11:36:21;;;;;;;11.32;6.10;;;27.70;99.90;;;;;;6271063;22;20432;-78
2023/05/27 11:38:50;;;;;;;9.65;6.13;;;27.80;99.90;;;;;;6271831;22;20364;-78
2023/05/27 11:41:17;;;;;;;10.50;6.35;;;27.70;99.90;;;;;;6271618;22;20367;-78
2023/05/27 11:43:54;;;;;;;11.25;6.18;;;27.90;99.90;;;;;;6271685;22;20352;-78
2023/05/27 11:46:21;;;;;;;10.43;6.82;;;27.80;99.90;;;;;;6271595;22;20436;-78
2023/05/27 11:48:47;;;;;;;10.98;6.10;;;27.90;99.90;;;;;;6272095;22;20361;-78
2023/05/27 11:51:12;;;;;;;10.15;6.40;;;27.80;99.90;;;;;;6270597;22;20349;-78
2023/05/27 11:53:40;;;;;;;11.45;6.72;;;27.70;99.90;;;;;;6270643;22;20429;-78
2023/05/27 11:56:07;;;;;;;9.43;5.97;;;27.30;99.90;;;;;;6270770;22;20364;-78
2023/05/27 11:58:32;;;;;;;13.18;6.50;;;27.50;99.90;;;;;;6270507;22;20485;-78
2023/05/27 12:00:58;;;;;;;11.13;6.10;;;27.50;99.90;;;;;;6270594;22;20383;-78
2023/05/27 12:03:24;;;;;;;14.97;6.70;;;27.30;99.90;;;;;;6271068;22;20359;-78
2023/05/27 12:05:49;;;;;;;10.63;6.50;;;27.30;99.90;;;;;;6271348;22;20371;-78
2023/05/27 12:08:15;;;;;;;10.32;6.57;;;27.20;99.90;;;;;;6270892;22;20364;-78
2023/05/27 12:10:40;;;;;;;12.45;6.90;;;27.30;99.90;;;;;;6270713;22;20360;-78
2023/05/27 12:13:06;;;;;;;12.80;7.00;;;27.20;99.90;;;;;;6270650;22;20454;-77
2023/05/27 12:15:32;;;;;;;14.55;6.20;;;27.00;99.90;;;;;;6271159;22;20388;-78
2023/05/27 12:17:58;;;;;;;10.95;6.07;;;27.10;99.90;;;;;;6271142;22;20443;-78
2023/05/27 12:20:28;;;;;;;13.10;6.37;;;26.80;99.90;;;;;;6270340;22;20356;-78
2023/05/27 12:22:55;;;;;;;13.55;6.10;;;27.00;99.90;;;;;;6270264;22;20344;-78
2023/05/27 12:25:21;;;;;;;10.40;6.00;;;27.00;99.90;;;;;;6270598;22;20371;-78
2023/05/27 12:27:46;;;;;;;11.97;6.30;;;26.70;99.90;;;;;;6270950;22;20759;-77
2023/05/27 12:30:12;;;;;;;12.47;6.53;;;26.70;99.90;;;;;;6269956;22;20687;-77
2023/05/27 12:32:38;;;;;;;11.68;6.88;;;26.40;99.90;;;;;;6270576;22;20431;-77
2023/05/27 12:35:05;;;;;;;12.20;6.67;;;26.40;99.90;;;;;;6270156;22;20415;-77
2023/05/27 12:37:30;;;;;;;10.70;5.97;;;26.80;99.90;;;;;;6269956;22;20349;-78
2023/05/27 12:39:56;;;;;;;10.27;6.10;;;26.90;99.90;;;;;;6270414;22;20360;-77